createdAt,value
2022-11-16T00:01:41.567Z,19.85
2022-11-16T00:04:09.858Z,19.20
2022-11-16T00:06:37.843Z,19.23
2022-11-16T00:09:21.726Z,19.20
2022-11-16T00:11:55.810Z,18.17
2022-11-16T00:14:25.707Z,18.40
2022-11-16T00:16:53.321Z,19.23
2022-11-16T00:19:21.492Z,15.77
2022-11-16T00:21:49.025Z,17.85
2022-11-16T00:24:18.960Z,18.13
2022-11-16T00:26:47.355Z,17.13
2022-11-16T00:29:20.992Z,17.38
2022-11-16T00:31:49.027Z,16.52
2022-11-16T00:34:17.256Z,17.85
2022-11-16T00:36:45.119Z,17.10
2022-11-16T00:39:17.089Z,17.02
2022-11-16T00:41:47.028Z,17.75
2022-11-16T00:44:15.416Z,17.38
2022-11-16T00:46:43.373Z,16.58
2022-11-16T00:49:11.487Z,16.42
2022-11-16T00:51:38.992Z,15.95
2022-11-16T00:54:08.873Z,15.52
2022-11-16T00:56:38.161Z,16.48
2022-11-16T00:59:07.459Z,18.23
2022-11-16T01:01:35.412Z,15.57
2022-11-16T01:04:03.406Z,17.45
2022-11-16T01:06:31.174Z,17.98
2022-11-16T01:09:01.441Z,17.10
2022-11-16T01:11:41.917Z,16.35
2022-11-16T01:14:10.089Z,15.05
2022-11-16T01:16:37.784Z,15.93
2022-11-16T01:19:06.089Z,17.08
2022-11-16T01:21:34.252Z,16.55
2022-11-16T01:24:02.341Z,16.88
2022-11-16T01:26:30.275Z,16.38
2022-11-16T01:28:59.273Z,16.95
2022-11-16T01:31:30.152Z,16.77
2022-11-16T01:33:59.119Z,17.40
2022-11-16T01:36:29.629Z,16.38
2022-11-16T01:39:00.096Z,13.88
2022-11-16T01:41:31.312Z,16.13
2022-11-16T01:44:04.471Z,15.10
2022-11-16T01:46:38.126Z,16.13
2022-11-16T01:49:14.877Z,16.15
2022-11-16T01:51:46.210Z,15.75
2022-11-16T01:54:16.017Z,16.00
2022-11-16T01:56:54.418Z,16.08
2022-11-16T01:59:43.751Z,15.05
2022-11-16T02:02:16.307Z,16.20
2022-11-16T02:04:46.620Z,17.45
2022-11-16T02:08:01.205Z,16.70
2022-11-16T02:10:43.427Z,14.98
2022-11-16T02:13:28.828Z,17.25
2022-11-16T02:16:19.516Z,17.17
2022-11-16T02:19:18.133Z,16.23
2022-11-16T02:21:52.428Z,16.20
2022-11-16T02:24:51.071Z,17.83
2022-11-16T02:27:44.701Z,17.60
2022-11-16T02:30:12.669Z,18.45
2022-11-16T02:33:00.166Z,18.08
2022-11-16T02:35:31.716Z,17.85
2022-11-16T02:38:11.564Z,17.83
2022-11-16T02:40:41.338Z,17.50
2022-11-16T02:43:11.759Z,18.55
2022-11-16T02:45:43.425Z,19.20
2022-11-16T02:48:15.684Z,18.23
2022-11-16T02:50:44.367Z,18.42
2022-11-16T02:53:11.906Z,18.63
2022-11-16T02:55:40.908Z,17.98
2022-11-16T02:58:11.926Z,16.65
2022-11-16T03:01:07.392Z,17.33
2022-11-16T03:03:59.519Z,17.55
2022-11-16T03:06:31.486Z,17.02
2022-11-16T03:09:15.589Z,18.70
2022-11-16T03:12:01.804Z,17.77
2022-11-16T03:14:48.868Z,17.25
2022-11-16T03:17:25.854Z,18.10
2022-11-16T03:20:00.017Z,18.05
2022-11-16T03:22:38.927Z,18.63
2022-11-16T03:25:08.244Z,19.08
2022-11-16T03:27:45.109Z,19.52
2022-11-16T03:30:17.329Z,18.90
2022-11-16T03:32:51.758Z,19.40
2022-11-16T03:35:24.714Z,19.95
2022-11-16T03:37:54.429Z,19.10
2022-11-16T03:40:25.042Z,19.55
2022-11-16T03:42:53.341Z,17.98
2022-11-16T03:45:21.881Z,20.50
2022-11-16T03:47:52.282Z,19.67
2022-11-16T03:50:21.208Z,19.23
2022-11-16T03:52:48.614Z,19.75
2022-11-16T03:55:16.414Z,19.88
2022-11-16T03:57:45.392Z,20.42
2022-11-16T04:00:14.879Z,19.67
2022-11-16T04:02:43.091Z,22.10
2022-11-16T04:05:30.978Z,19.67
2022-11-16T04:08:13.228Z,21.30
2022-11-16T04:10:54.761Z,20.23
2022-11-16T04:13:41.860Z,21.83
2022-11-16T04:16:24.424Z,20.60
2022-11-16T04:19:05.888Z,20.93
2022-11-16T04:21:51.321Z,21.20
2022-11-16T04:24:22.958Z,21.88
2022-11-16T04:27:08.092Z,21.23
2022-11-16T04:29:36.568Z,21.95
2022-11-16T04:32:19.598Z,21.60
2022-11-16T04:35:01.321Z,20.60
2022-11-16T04:37:44.316Z,20.20
2022-11-16T04:40:12.390Z,21.20
2022-11-16T04:42:40.396Z,20.67
2022-11-16T04:45:23.621Z,22.10
2022-11-16T04:47:53.911Z,21.40
2022-11-16T04:50:26.098Z,21.48
2022-11-16T04:52:53.836Z,20.90
2022-11-16T04:55:21.407Z,20.25
2022-11-16T04:57:51.048Z,21.70
2022-11-16T05:00:18.823Z,21.92
2022-11-16T05:02:46.603Z,22.10
2022-11-16T05:05:15.046Z,22.35
2022-11-16T05:07:44.802Z,22.42
2022-11-16T05:10:26.633Z,21.88
2022-11-16T05:12:55.741Z,22.13
2022-11-16T05:15:24.067Z,21.98
2022-11-16T05:17:54.929Z,21.10
2022-11-16T05:23:27.646Z,20.90
2022-11-16T05:25:56.750Z,20.05
2022-11-16T05:28:24.596Z,21.33
2022-11-16T05:30:53.049Z,21.13
2022-11-16T05:33:23.854Z,22.83
2022-11-16T05:35:52.306Z,20.95
2022-11-16T05:38:20.952Z,21.42
2022-11-16T05:40:52.224Z,21.42
2022-11-16T05:43:20.357Z,20.33
2022-11-16T05:45:59.678Z,21.02
2022-11-16T05:48:27.706Z,19.52
2022-11-16T05:50:59.567Z,21.55
2022-11-16T05:53:30.818Z,21.02
2022-11-16T05:55:59.436Z,20.92
2022-11-16T05:58:27.919Z,20.42
2022-11-16T06:00:55.319Z,20.63
2022-11-16T06:03:23.467Z,21.30
2022-11-16T06:05:53.286Z,21.65
2022-11-16T06:08:21.567Z,21.42
2022-11-16T06:10:53.187Z,20.02
2022-11-16T06:13:21.203Z,19.88
2022-11-16T06:15:51.353Z,20.92
2022-11-16T06:18:19.761Z,21.80
2022-11-16T06:20:48.821Z,21.15
2022-11-16T06:23:17.614Z,18.63
2022-11-16T06:25:45.329Z,20.73
2022-11-16T06:28:13.358Z,20.90
2022-11-16T06:30:41.388Z,20.15
2022-11-16T06:33:09.697Z,20.85
2022-11-16T06:35:38.363Z,19.65
2022-11-16T06:38:06.320Z,19.23
2022-11-16T06:40:34.541Z,18.77
2022-11-16T06:43:04.612Z,21.30
2022-11-16T06:45:32.315Z,21.52
2022-11-16T06:48:01.762Z,20.35
2022-11-16T06:50:29.419Z,19.85
2022-11-16T06:53:01.108Z,20.00
2022-11-16T06:55:29.968Z,20.23
2022-11-16T06:57:57.794Z,20.35
2022-11-16T07:00:25.643Z,20.50
2022-11-16T07:02:53.454Z,20.70
2022-11-16T07:05:20.909Z,20.95
2022-11-16T07:07:48.779Z,20.10
2022-11-16T07:10:16.836Z,20.85
2022-11-16T07:12:44.693Z,19.77
2022-11-16T07:15:14.381Z,18.48
2022-11-16T07:17:44.603Z,19.48
2022-11-16T07:20:12.971Z,19.60
2022-11-16T07:22:41.443Z,19.58
2022-11-16T07:25:13.116Z,19.48
2022-11-16T07:27:41.471Z,18.33
2022-11-16T07:30:09.551Z,17.98
2022-11-16T07:33:00.656Z,18.67
2022-11-16T07:35:42.117Z,17.15
2022-11-16T07:38:12.134Z,17.38
2022-11-16T07:40:45.768Z,16.85
2022-11-16T07:43:20.827Z,17.27
2022-11-16T07:46:44.690Z,15.85
2022-11-16T07:48:54.682Z,14.95
2022-11-16T07:51:36.082Z,13.73
2022-11-16T07:54:16.655Z,14.18
2022-11-16T07:56:44.038Z,12.27
2022-11-16T07:59:11.960Z,12.05
2022-11-16T08:01:43.647Z,10.35
2022-11-16T08:04:12.587Z,12.40
2022-11-16T08:06:39.979Z,11.77
2022-11-16T08:09:09.633Z,11.65
2022-11-16T08:11:38.288Z,10.63
2022-11-16T08:14:06.191Z,11.95
2022-11-16T08:16:33.967Z,11.55
2022-11-16T08:19:10.505Z,12.27
2022-11-16T08:21:38.646Z,11.75
2022-11-16T08:24:07.879Z,13.15
2022-11-16T08:26:39.345Z,12.18
2022-11-16T08:29:11.901Z,12.70
2022-11-16T08:31:45.187Z,10.80
2022-11-16T08:34:16.025Z,11.48
2022-11-16T08:36:46.769Z,8.45
2022-11-16T08:39:14.608Z,10.68
2022-11-16T08:41:42.622Z,8.82
2022-11-16T08:44:11.653Z,8.73
2022-11-16T08:46:42.669Z,9.00
2022-11-16T08:49:24.205Z,7.40
2022-11-16T08:51:53.057Z,8.45
2022-11-16T08:54:21.225Z,7.00
2022-11-16T08:56:49.521Z,7.95
2022-11-16T08:59:19.007Z,6.63
2022-11-16T09:01:50.621Z,6.60
2022-11-16T09:04:18.919Z,7.60
2022-11-16T09:06:46.561Z,7.63
2022-11-16T09:09:14.386Z,5.57
2022-11-16T09:11:41.819Z,6.35
2022-11-16T09:14:11.613Z,6.25
2022-11-16T09:16:39.234Z,6.13
2022-11-16T09:19:07.085Z,6.65
2022-11-16T09:21:36.602Z,6.75
2022-11-16T09:24:04.703Z,5.13
2022-11-16T09:26:32.123Z,6.68
2022-11-16T09:29:01.278Z,5.80
2022-11-16T09:31:29.945Z,5.53
2022-11-16T09:33:59.179Z,6.57
2022-11-16T09:36:27.851Z,5.28
2022-11-16T09:42:00.211Z,5.35
2022-11-16T09:44:40.437Z,5.22
2022-11-16T09:47:15.666Z,5.07
2022-11-16T09:49:49.516Z,4.45
2022-11-16T09:52:39.074Z,5.65
2022-11-16T09:55:22.624Z,5.43
2022-11-16T10:00:22.059Z,4.00
2022-11-16T10:03:04.380Z,4.50
2022-11-16T10:05:39.636Z,5.10
2022-11-16T10:08:15.898Z,4.15
2022-11-16T10:11:23.594Z,4.18
2022-11-16T10:14:06.502Z,4.63
2022-11-16T10:16:49.258Z,3.97
2022-11-16T10:19:36.284Z,4.13
2022-11-16T10:22:20.682Z,4.13
2022-11-16T10:24:57.877Z,3.78
2022-11-16T10:27:45.349Z,4.32
2022-11-16T10:30:15.576Z,4.00
2022-11-16T10:32:47.963Z,3.30
2022-11-16T10:35:28.157Z,3.95
2022-11-16T10:37:59.184Z,4.18
2022-11-16T10:40:29.547Z,3.97
2022-11-16T10:43:10.795Z,3.92
2022-11-16T10:46:05.923Z,4.00
2022-11-16T10:48:48.649Z,4.00
2022-11-16T10:51:16.130Z,4.30
2022-11-16T10:53:44.488Z,4.30
2022-11-16T10:56:22.698Z,3.45
2022-11-16T10:59:07.238Z,3.20
2022-11-16T11:01:51.322Z,3.40
2022-11-16T11:04:27.688Z,4.18
2022-11-16T11:07:03.376Z,3.97
2022-11-16T11:09:33.674Z,3.60
2022-11-16T11:12:31.859Z,3.50
2022-11-16T11:15:02.956Z,3.42
2022-11-16T11:17:31.568Z,4.20
2022-11-16T11:20:23.950Z,4.10
2022-11-16T11:22:56.586Z,3.20
2022-11-16T11:25:30.567Z,3.88
2022-11-16T11:28:07.120Z,3.60
2022-11-16T11:30:35.662Z,3.53
2022-11-16T11:33:10.573Z,3.25
2022-11-16T11:35:38.594Z,2.50
2022-11-16T11:38:08.300Z,3.30
2022-11-16T11:40:36.417Z,2.30
2022-11-16T11:43:05.983Z,2.50
2022-11-16T11:46:08.141Z,2.85
2022-11-16T11:48:50.087Z,2.95
2022-11-16T11:51:23.052Z,2.78
2022-11-16T11:53:57.563Z,2.35
2022-11-16T11:56:27.256Z,2.25
2022-11-16T11:58:55.276Z,2.33
2022-11-16T12:01:44.633Z,2.42
2022-11-16T12:04:32.031Z,2.20
2022-11-16T12:07:14.900Z,2.25
2022-11-16T12:09:59.473Z,2.47
2022-11-16T12:12:30.377Z,2.33
2022-11-16T12:15:25.618Z,2.83
2022-11-16T12:18:27.595Z,2.60
2022-11-16T12:21:13.453Z,2.95
2022-11-16T12:23:56.369Z,2.78
2022-11-16T12:26:32.717Z,2.88
2022-11-16T12:29:20.850Z,2.92
2022-11-16T12:32:02.264Z,3.05
2022-11-16T12:34:48.590Z,3.75
2022-11-16T12:37:45.752Z,3.20
2022-11-16T12:40:34.129Z,4.22
2022-11-16T12:43:17.838Z,3.42
2022-11-16T12:46:02.108Z,4.35
2022-11-16T12:48:52.695Z,3.70
2022-11-16T12:51:43.429Z,3.10
2022-11-16T12:54:34.751Z,3.30
2022-11-16T12:57:28.777Z,3.30
2022-11-16T13:00:07.436Z,3.50
2022-11-16T13:02:45.252Z,3.67
2022-11-16T13:05:21.730Z,3.33
2022-11-16T13:07:53.392Z,3.30
2022-11-16T13:10:29.967Z,3.80
2022-11-16T13:13:22.268Z,3.20
2022-11-16T13:15:48.656Z,3.70
2022-11-16T13:18:18.926Z,3.78
2022-11-16T13:20:59.471Z,3.92
2022-11-16T13:23:54.807Z,4.55
2022-11-16T13:26:34.312Z,4.35
2022-11-16T13:29:15.947Z,4.15
2022-11-16T13:31:51.222Z,5.07
2022-11-16T13:34:27.737Z,4.35
2022-11-16T13:36:55.271Z,4.05
2022-11-16T13:39:55.822Z,5.18
2022-11-16T13:42:23.533Z,4.30
2022-11-16T13:44:51.954Z,4.88
2022-11-16T13:47:25.550Z,4.55
2022-11-16T13:49:58.209Z,5.07
2022-11-16T13:53:23.484Z,4.35
2022-11-16T13:55:42.156Z,4.03
2022-11-16T13:58:11.411Z,3.70
2022-11-16T14:00:40.305Z,4.05
2022-11-16T14:03:16.832Z,3.83
2022-11-16T14:05:49.070Z,4.25
2022-11-16T14:08:19.525Z,4.50
2022-11-16T14:10:51.846Z,4.15
2022-11-16T14:13:54.008Z,4.57
2022-11-16T14:16:21.907Z,4.35
2022-11-16T14:18:51.439Z,3.28
2022-11-16T14:21:47.095Z,4.63
2022-11-16T14:24:14.397Z,5.03
2022-11-16T14:27:01.815Z,5.63
2022-11-16T14:29:32.375Z,5.82
2022-11-16T14:32:02.829Z,5.80
2022-11-16T14:34:44.993Z,5.03
2022-11-16T14:37:28.496Z,5.28
2022-11-16T14:40:08.135Z,5.82
2022-11-16T14:43:09.507Z,5.78
2022-11-16T14:45:33.720Z,3.83
2022-11-16T14:48:04.764Z,5.53
2022-11-16T14:50:36.715Z,4.47
2022-11-16T14:53:10.034Z,4.50
2022-11-16T14:55:42.779Z,4.30
2022-11-16T14:58:18.364Z,3.90
2022-11-16T15:01:00.519Z,4.80
2022-11-16T15:03:32.175Z,4.43
2022-11-16T15:06:00.941Z,3.58
2022-11-16T15:08:35.930Z,4.28
2022-11-16T15:11:03.322Z,4.07
2022-11-16T15:13:31.293Z,4.65
2022-11-16T15:16:16.317Z,5.25
2022-11-16T15:18:58.927Z,3.53
2022-11-16T15:21:26.663Z,4.13
2022-11-16T15:24:23.567Z,2.92
2022-11-16T15:26:41.854Z,4.68
2022-11-16T15:29:15.851Z,4.03
2022-11-16T15:31:44.456Z,4.55
2022-11-16T15:34:13.906Z,4.53
2022-11-16T15:36:41.970Z,4.32
2022-11-16T15:39:32.113Z,3.80
2022-11-16T15:42:03.708Z,4.85
2022-11-16T15:44:33.217Z,3.17
2022-11-16T15:47:00.953Z,5.55
2022-11-16T15:49:30.529Z,5.80
2022-11-16T15:51:59.749Z,5.28
2022-11-16T15:54:28.492Z,5.43
2022-11-16T15:56:58.408Z,5.30
2022-11-16T15:59:32.042Z,5.45
2022-11-16T16:01:59.657Z,5.97
2022-11-16T16:04:29.109Z,4.05
2022-11-16T16:07:00.393Z,5.50
2022-11-16T16:09:31.325Z,5.82
2022-11-16T16:12:15.894Z,4.97
2022-11-16T16:14:44.479Z,5.15
2022-11-16T16:17:21.925Z,6.18
2022-11-16T16:20:01.387Z,5.60
2022-11-16T16:22:33.825Z,5.13
2022-11-16T16:25:02.486Z,6.07
2022-11-16T16:27:31.833Z,6.00
2022-11-16T16:30:04.714Z,6.10
2022-11-16T16:32:34.438Z,4.75
2022-11-16T16:35:04.914Z,6.00
2022-11-16T16:37:34.262Z,5.30
2022-11-16T16:40:02.397Z,4.60
2022-11-16T16:42:30.478Z,6.00
2022-11-16T16:45:00.264Z,6.22
2022-11-16T16:47:27.768Z,4.85
2022-11-16T16:49:55.888Z,6.70
2022-11-16T16:52:23.821Z,5.40
2022-11-16T16:54:51.672Z,4.45
2022-11-16T16:57:19.281Z,3.70
2022-11-16T16:59:48.625Z,5.93
2022-11-16T17:02:16.884Z,3.33
2022-11-16T17:04:48.571Z,5.72
2022-11-16T17:07:16.536Z,4.80
2022-11-16T17:09:44.312Z,5.53
2022-11-16T17:12:12.054Z,5.72
2022-11-16T17:14:39.949Z,6.13
2022-11-16T17:17:07.317Z,4.63
2022-11-16T17:19:35.082Z,5.35
2022-11-16T17:22:02.590Z,4.85
2022-11-16T17:24:30.424Z,5.50
2022-11-16T17:26:57.768Z,6.03
2022-11-16T17:29:25.647Z,5.70
2022-11-16T17:31:53.093Z,5.20
2022-11-16T17:34:21.049Z,6.18
2022-11-16T17:36:48.535Z,6.43
2022-11-16T17:39:17.420Z,6.80
2022-11-16T17:41:45.194Z,5.68
2022-11-16T17:44:17.205Z,6.57
2022-11-16T17:46:47.753Z,6.68
2022-11-16T17:49:15.617Z,6.03
2022-11-16T17:51:43.070Z,6.32
2022-11-16T17:54:10.905Z,6.00
2022-11-16T17:56:38.718Z,5.90
2022-11-16T17:59:06.730Z,6.00
2022-11-16T18:01:34.387Z,5.70
2022-11-16T18:04:02.877Z,5.93
2022-11-16T18:06:32.138Z,6.13
2022-11-16T18:09:00.017Z,5.57
2022-11-16T18:11:28.509Z,3.90
2022-11-16T18:13:58.866Z,5.47
2022-11-16T18:16:28.821Z,5.57
2022-11-16T18:18:59.396Z,4.00
2022-11-16T18:21:27.166Z,6.05
2022-11-16T18:23:55.223Z,5.30
2022-11-16T18:26:23.986Z,4.53
2022-11-16T18:28:53.351Z,4.63
2022-11-16T18:31:22.684Z,7.00
2022-11-16T18:33:51.124Z,4.28
2022-11-16T18:36:20.372Z,6.68
2022-11-16T18:38:48.457Z,4.03
2022-11-16T18:41:19.991Z,5.43
2022-11-16T18:43:55.613Z,6.03
2022-11-16T18:46:25.924Z,6.05
2022-11-16T18:48:54.022Z,3.30
2022-11-16T18:51:22.783Z,5.03
2022-11-16T18:53:50.971Z,5.65
2022-11-16T18:56:18.921Z,6.03
2022-11-16T18:58:51.895Z,4.72
2022-11-16T19:01:22.720Z,5.18
2022-11-16T19:03:51.938Z,5.55
2022-11-16T19:06:19.538Z,4.80
2022-11-16T19:08:55.080Z,6.07
2022-11-16T19:11:24.147Z,5.20
2022-11-16T19:13:54.557Z,5.65
2022-11-16T19:16:23.212Z,5.97
2022-11-16T19:18:51.177Z,5.90
2022-11-16T19:21:19.192Z,4.93
2022-11-16T19:23:48.888Z,5.28
2022-11-16T19:26:18.561Z,5.00
2022-11-16T19:28:49.257Z,6.18
2022-11-16T19:31:29.142Z,5.97
2022-11-16T19:34:05.313Z,7.50
2022-11-16T19:36:34.575Z,7.35
2022-11-16T19:39:02.937Z,6.80
2022-11-16T19:41:30.399Z,7.32
2022-11-16T19:44:00.454Z,7.60
2022-11-16T19:46:30.253Z,6.35
2022-11-16T19:48:58.699Z,8.65
2022-11-16T19:51:28.225Z,6.55
2022-11-16T19:53:56.722Z,8.95
2022-11-16T19:56:24.845Z,8.27
2022-11-16T19:58:52.852Z,7.30
2022-11-16T20:01:27.739Z,9.63
2022-11-16T20:03:57.554Z,6.13
2022-11-16T20:06:29.474Z,9.15
2022-11-16T20:09:01.010Z,8.52
2022-11-16T20:11:33.875Z,9.43
2022-11-16T20:14:03.428Z,9.98
2022-11-16T20:16:38.672Z,9.32
2022-11-16T20:19:10.398Z,8.55
2022-11-16T20:21:44.550Z,8.82
2022-11-16T20:24:16.376Z,9.35
2022-11-16T20:26:46.686Z,8.85
2022-11-16T20:29:16.120Z,9.57
2022-11-16T20:31:45.444Z,7.93
2022-11-16T20:34:15.941Z,8.70
2022-11-16T20:36:46.021Z,9.55
2022-11-16T20:39:15.475Z,7.88
2022-11-16T20:41:44.230Z,7.75
2022-11-16T20:44:22.333Z,7.93
2022-11-16T20:46:52.215Z,7.82
2022-11-16T20:49:20.171Z,6.68
2022-11-16T20:51:49.604Z,8.57
2022-11-16T20:54:17.523Z,8.55
2022-11-16T20:56:45.150Z,7.63
2022-11-16T20:59:13.048Z,8.93
2022-11-16T21:01:41.712Z,10.13
2022-11-16T21:04:11.106Z,9.75
2022-11-16T21:06:38.515Z,4.90
2022-11-16T21:09:06.573Z,9.00
2022-11-16T21:11:54.271Z,9.52
2022-11-16T21:14:23.121Z,10.02
2022-11-16T21:16:50.607Z,10.60
2022-11-16T21:19:22.383Z,6.57
2022-11-16T21:21:50.230Z,9.27
2022-11-16T21:24:18.175Z,7.68
2022-11-16T21:26:45.700Z,9.35
2022-11-16T21:29:13.581Z,10.05
2022-11-16T21:31:41.111Z,9.05
2022-11-16T21:34:09.218Z,8.18
2022-11-16T21:36:37.090Z,8.90
2022-11-16T21:39:05.066Z,9.73
2022-11-16T21:41:33.048Z,5.38
2022-11-16T21:44:01.459Z,7.45
2022-11-16T21:46:29.076Z,7.43
2022-11-16T21:48:58.309Z,7.72
2022-11-16T21:51:27.422Z,8.27
2022-11-16T21:53:55.750Z,7.30
2022-11-16T21:56:24.510Z,7.43
2022-11-16T21:58:53.176Z,6.70
2022-11-16T22:01:21.935Z,7.68
2022-11-16T22:04:10.201Z,5.25
2022-11-16T22:06:51.752Z,7.90
2022-11-16T22:09:19.760Z,7.75
2022-11-16T22:14:41.265Z,8.52
2022-11-16T22:17:10.373Z,6.97
2022-11-16T22:19:37.974Z,7.35
2022-11-16T22:22:05.824Z,7.72
2022-11-16T22:24:33.450Z,6.20
2022-11-16T22:27:01.342Z,7.53
2022-11-16T22:29:28.744Z,5.43
2022-11-16T22:31:56.767Z,7.72
2022-11-16T22:34:24.600Z,7.35
2022-11-16T22:36:54.025Z,7.50
2022-11-16T22:39:21.735Z,8.13
2022-11-16T22:41:49.629Z,8.55
2022-11-16T22:44:17.227Z,6.28
2022-11-16T22:46:45.069Z,8.40
2022-11-16T22:49:12.523Z,8.45
2022-11-16T22:51:40.396Z,8.07
2022-11-16T22:54:08.080Z,5.80
2022-11-16T22:56:35.920Z,7.93
2022-11-16T22:59:05.515Z,7.40
2022-11-16T23:01:33.749Z,7.60
2022-11-16T23:04:01.271Z,8.05
2022-11-16T23:06:29.411Z,7.78
2022-11-16T23:08:57.062Z,7.32
2022-11-16T23:11:40.120Z,7.43
2022-11-16T23:14:25.050Z,6.65
2022-11-16T23:16:53.088Z,6.53
2022-11-16T23:19:35.515Z,6.28
2022-11-16T23:22:17.499Z,5.72
2022-11-16T23:24:59.331Z,5.78
2022-11-16T23:27:43.528Z,6.77
2022-11-16T23:30:13.328Z,5.78
2022-11-16T23:32:42.185Z,5.93
2022-11-16T23:35:11.614Z,5.15
2022-11-16T23:38:00.005Z,5.78
2022-11-16T23:40:33.061Z,6.90
2022-11-16T23:43:15.411Z,6.15
2022-11-16T23:45:43.934Z,5.68
2022-11-16T23:48:13.969Z,6.00
2022-11-16T23:50:42.197Z,5.07
2022-11-16T23:53:10.461Z,6.05
2022-11-16T23:55:39.411Z,6.47
2022-11-16T23:58:11.799Z,6.85
